sensor_id;sensor_type;location;lat;lon;timestamp;P1;durP1;ratioP1;P2;durP2;ratioP2
15412;SDS011;7805;49.554;7.632;2024-03-23T00:54:18;9.13;;;8.23;;
15412;SDS011;7805;49.554;7.632;2024-03-23T00:56:44;9.60;;;8.07;;
15412;SDS011;7805;49.554;7.632;2024-03-23T00:59:09;14.67;;;9.80;;
15412;SDS011;7805;49.554;7.632;2024-03-23T01:01:35;23.37;;;16.63;;
15412;SDS011;7805;49.554;7.632;2024-03-23T01:04:00;21.17;;;16.17;;
15412;SDS011;7805;49.554;7.632;2024-03-23T01:06:27;16.03;;;11.47;;
15412;SDS011;7805;49.554;7.632;2024-03-23T01:08:52;12.40;;;10.33;;
15412;SDS011;7805;49.554;7.632;2024-03-23T01:11:18;11.90;;;9.53;;
15412;SDS011;7805;49.554;7.632;2024-03-23T01:13:43;16.40;;;11.23;;
15412;SDS011;7805;49.554;7.632;2024-03-23T01:16:09;13.10;;;9.03;;
15412;SDS011;7805;49.554;7.632;2024-03-23T01:18:34;8.77;;;7.83;;
15412;SDS011;7805;49.554;7.632;2024-03-23T01:21:00;9.47;;;8.50;;
15412;SDS011;7805;49.554;7.632;2024-03-23T01:23:25;11.47;;;9.87;;
15412;SDS011;7805;49.554;7.632;2024-03-23T01:25:52;14.60;;;10.80;;
15412;SDS011;7805;49.554;7.632;2024-03-23T01:28:18;12.23;;;10.80;;
15412;SDS011;7805;49.554;7.632;2024-03-23T01:30:44;12.97;;;9.53;;
15412;SDS011;7805;49.554;7.632;2024-03-23T01:33:10;9.77;;;8.23;;
15412;SDS011;7805;49.554;7.632;2024-03-23T01:35:35;13.70;;;9.80;;
15412;SDS011;7805;49.554;7.632;2024-03-23T01:38:01;11.00;;;9.17;;
15412;SDS011;7805;49.554;7.632;2024-03-23T01:40:27;11.00;;;8.93;;
15412;SDS011;7805;49.554;7.632;2024-03-23T01:42:56;11.87;;;10.23;;
15412;SDS011;7805;49.554;7.632;2024-03-23T01:45:22;10.67;;;9.57;;
15412;SDS011;7805;49.554;7.632;2024-03-23T01:47:49;13.40;;;10.80;;
15412;SDS011;7805;49.554;7.632;2024-03-23T01:50:15;12.03;;;9.57;;
15412;SDS011;7805;49.554;7.632;2024-03-23T01:52:41;14.57;;;11.03;;
15412;SDS011;7805;49.554;7.632;2024-03-23T01:55:07;19.70;;;14.23;;
15412;SDS011;7805;49.554;7.632;2024-03-23T01:57:33;13.80;;;11.67;;
15412;SDS011;7805;49.554;7.632;2024-03-23T01:59:58;11.60;;;10.40;;
15412;SDS011;7805;49.554;7.632;2024-03-23T02:02:24;12.77;;;9.33;;
15412;SDS011;7805;49.554;7.632;2024-03-23T02:04:50;12.17;;;8.40;;
15412;SDS011;7805;49.554;7.632;2024-03-23T02:07:16;9.97;;;7.87;;
15412;SDS011;7805;49.554;7.632;2024-03-23T02:09:41;10.17;;;8.67;;
15412;SDS011;7805;49.554;7.632;2024-03-23T02:12:08;12.67;;;9.07;;
15412;SDS011;7805;49.554;7.632;2024-03-23T02:14:34;12.90;;;9.13;;
15412;SDS011;7805;49.554;7.632;2024-03-23T02:17:00;10.63;;;9.53;;
15412;SDS011;7805;49.554;7.632;2024-03-23T02:19:25;13.53;;;9.67;;
15412;SDS011;7805;49.554;7.632;2024-03-23T02:21:51;12.60;;;9.57;;
15412;SDS011;7805;49.554;7.632;2024-03-23T02:24:16;11.00;;;9.63;;
15412;SDS011;7805;49.554;7.632;2024-03-23T02:26:42;13.23;;;9.57;;
15412;SDS011;7805;49.554;7.632;2024-03-23T02:29:07;10.70;;;9.53;;
15412;SDS011;7805;49.554;7.632;2024-03-23T02:31:34;13.57;;;9.87;;
15412;SDS011;7805;49.554;7.632;2024-03-23T02:34:00;12.97;;;10.33;;
15412;SDS011;7805;49.554;7.632;2024-03-23T02:36:26;13.23;;;10.30;;
15412;SDS011;7805;49.554;7.632;2024-03-23T02:38:52;14.60;;;10.37;;
15412;SDS011;7805;49.554;7.632;2024-03-23T02:41:17;13.83;;;10.80;;
15412;SDS011;7805;49.554;7.632;2024-03-23T02:43:48;13.07;;;10.33;;
15412;SDS011;7805;49.554;7.632;2024-03-23T02:46:17;15.00;;;10.90;;
15412;SDS011;7805;49.554;7.632;2024-03-23T02:48:43;17.00;;;11.43;;
15412;SDS011;7805;49.554;7.632;2024-03-23T02:51:08;14.10;;;11.83;;
15412;SDS011;7805;49.554;7.632;2024-03-23T02:53:34;19.67;;;13.30;;
15412;SDS011;7805;49.554;7.632;2024-03-23T02:56:00;21.57;;;16.37;;
15412;SDS011;7805;49.554;7.632;2024-03-23T02:58:26;19.67;;;14.27;;
15412;SDS011;7805;49.554;7.632;2024-03-23T03:00:51;23.70;;;16.30;;
15412;SDS011;7805;49.554;7.632;2024-03-23T03:03:17;28.10;;;18.60;;
15412;SDS011;7805;49.554;7.632;2024-03-23T03:08:12;29.30;;;18.27;;
15412;SDS011;7805;49.554;7.632;2024-03-23T03:10:38;26.17;;;17.80;;
15412;SDS011;7805;49.554;7.632;2024-03-23T03:13:03;26.77;;;18.83;;
15412;SDS011;7805;49.554;7.632;2024-03-23T03:15:29;25.03;;;18.83;;
15412;SDS011;7805;49.554;7.632;2024-03-23T03:17:55;26.57;;;18.93;;
15412;SDS011;7805;49.554;7.632;2024-03-23T03:20:20;27.87;;;19.37;;
15412;SDS011;7805;49.554;7.632;2024-03-23T03:22:48;28.73;;;19.20;;
15412;SDS011;7805;49.554;7.632;2024-03-23T03:25:14;25.20;;;17.33;;
15412;SDS011;7805;49.554;7.632;2024-03-23T03:27:39;26.37;;;18.73;;
15412;SDS011;7805;49.554;7.632;2024-03-23T03:30:05;24.20;;;17.60;;
15412;SDS011;7805;49.554;7.632;2024-03-23T03:32:33;26.57;;;18.70;;
15412;SDS011;7805;49.554;7.632;2024-03-23T03:34:58;26.37;;;18.10;;
15412;SDS011;7805;49.554;7.632;2024-03-23T03:37:24;23.70;;;17.33;;
15412;SDS011;7805;49.554;7.632;2024-03-23T03:39:49;22.93;;;16.77;;
15412;SDS011;7805;49.554;7.632;2024-03-23T03:42:15;22.37;;;16.33;;
15412;SDS011;7805;49.554;7.632;2024-03-23T03:44:41;22.83;;;16.53;;
15412;SDS011;7805;49.554;7.632;2024-03-23T03:47:06;24.83;;;17.60;;
15412;SDS011;7805;49.554;7.632;2024-03-23T03:49:32;21.60;;;17.03;;
15412;SDS011;7805;49.554;7.632;2024-03-23T03:51:57;24.63;;;17.97;;
15412;SDS011;7805;49.554;7.632;2024-03-23T03:54:23;22.33;;;16.57;;
15412;SDS011;7805;49.554;7.632;2024-03-23T03:56:49;23.20;;;15.97;;
15412;SDS011;7805;49.554;7.632;2024-03-23T03:59:15;19.23;;;15.67;;
15412;SDS011;7805;49.554;7.632;2024-03-23T04:01:40;17.43;;;14.33;;
15412;SDS011;7805;49.554;7.632;2024-03-23T04:04:06;15.63;;;12.93;;
15412;SDS011;7805;49.554;7.632;2024-03-23T04:06:32;14.07;;;11.27;;
15412;SDS011;7805;49.554;7.632;2024-03-23T04:08:58;12.50;;;9.50;;
15412;SDS011;7805;49.554;7.632;2024-03-23T04:11:24;11.30;;;9.80;;
15412;SDS011;7805;49.554;7.632;2024-03-23T04:13:49;11.43;;;9.40;;
15412;SDS011;7805;49.554;7.632;2024-03-23T04:16:24;13.43;;;10.07;;
15412;SDS011;7805;49.554;7.632;2024-03-23T04:18:51;10.67;;;9.03;;
15412;SDS011;7805;49.554;7.632;2024-03-23T04:21:17;10.17;;;8.17;;
15412;SDS011;7805;49.554;7.632;2024-03-23T04:23:42;8.13;;;6.13;;
15412;SDS011;7805;49.554;7.632;2024-03-23T04:26:08;8.77;;;6.83;;
15412;SDS011;7805;49.554;7.632;2024-03-23T04:28:33;7.90;;;6.30;;
15412;SDS011;7805;49.554;7.632;2024-03-23T04:31:03;4.30;;;3.80;;
15412;SDS011;7805;49.554;7.632;2024-03-23T04:33:29;3.60;;;2.70;;
15412;SDS011;7805;49.554;7.632;2024-03-23T04:35:54;2.03;;;1.93;;
15412;SDS011;7805;49.554;7.632;2024-03-23T04:38:20;2.17;;;1.77;;
15412;SDS011;7805;49.554;7.632;2024-03-23T04:40:53;1.50;;;1.40;;
15412;SDS011;7805;49.554;7.632;2024-03-23T04:43:22;2.20;;;1.60;;
15412;SDS011;7805;49.554;7.632;2024-03-23T04:45:48;1.23;;;1.13;;
15412;SDS011;7805;49.554;7.632;2024-03-23T04:48:14;1.63;;;1.53;;
15412;SDS011;7805;49.554;7.632;2024-03-23T04:50:39;1.50;;;1.40;;
15412;SDS011;7805;49.554;7.632;2024-03-23T04:53:06;0.90;;;0.90;;
15412;SDS011;7805;49.554;7.632;2024-03-23T04:55:32;0.60;;;0.60;;
15412;SDS011;7805;49.554;7.632;2024-03-23T04:57:57;0.90;;;0.90;;
15412;SDS011;7805;49.554;7.632;2024-03-23T05:00:23;0.47;;;0.47;;
15412;SDS011;7805;49.554;7.632;2024-03-23T05:02:50;0.67;;;0.67;;
15412;SDS011;7805;49.554;7.632;2024-03-23T05:05:15;0.60;;;0.60;;
15412;SDS011;7805;49.554;7.632;2024-03-23T05:07:41;0.73;;;0.60;;
15412;SDS011;7805;49.554;7.632;2024-03-23T05:10:07;0.40;;;0.40;;
15412;SDS011;7805;49.554;7.632;2024-03-23T05:12:36;0.50;;;0.50;;
15412;SDS011;7805;49.554;7.632;2024-03-23T05:15:02;0.30;;;0.30;;
15412;SDS011;7805;49.554;7.632;2024-03-23T05:17:32;0.43;;;0.43;;
15412;SDS011;7805;49.554;7.632;2024-03-23T05:19:58;0.40;;;0.40;;
15412;SDS011;7805;49.554;7.632;2024-03-23T05:22:24;0.77;;;0.50;;
15412;SDS011;7805;49.554;7.632;2024-03-23T05:24:50;0.40;;;0.40;;
15412;SDS011;7805;49.554;7.632;2024-03-23T05:27:15;0.30;;;0.30;;
15412;SDS011;7805;49.554;7.632;2024-03-23T05:29:41;0.63;;;0.50;;
15412;SDS011;7805;49.554;7.632;2024-03-23T05:32:06;0.90;;;0.77;;
15412;SDS011;7805;49.554;7.632;2024-03-23T05:34:32;0.30;;;0.30;;
15412;SDS011;7805;49.554;7.632;2024-03-23T05:36:58;0.50;;;0.50;;
15412;SDS011;7805;49.554;7.632;2024-03-23T05:39:23;0.40;;;0.40;;
15412;SDS011;7805;49.554;7.632;2024-03-23T05:41:49;1.70;;;0.50;;
15412;SDS011;7805;49.554;7.632;2024-03-23T05:44:14;0.40;;;0.30;;
15412;SDS011;7805;49.554;7.632;2024-03-23T05:46:40;0.33;;;0.33;;
15412;SDS011;7805;49.554;7.632;2024-03-23T05:49:06;0.50;;;0.50;;
15412;SDS011;7805;49.554;7.632;2024-03-23T05:51:32;0.30;;;0.30;;
15412;SDS011;7805;49.554;7.632;2024-03-23T05:53:58;0.30;;;0.30;;
15412;SDS011;7805;49.554;7.632;2024-03-23T05:56:23;0.27;;;0.27;;
15412;SDS011;7805;49.554;7.632;2024-03-23T05:58:51;0.43;;;0.10;;
15412;SDS011;7805;49.554;7.632;2024-03-23T06:01:16;17.67;;;8.93;;
15412;SDS011;7805;49.554;7.632;2024-03-23T06:03:42;2.50;;;2.30;;
15412;SDS011;7805;49.554;7.632;2024-03-23T06:06:08;1.50;;;1.50;;
15412;SDS011;7805;49.554;7.632;2024-03-23T06:08:36;0.70;;;0.70;;
15412;SDS011;7805;49.554;7.632;2024-03-23T06:11:04;0.30;;;0.30;;
15412;SDS011;7805;49.554;7.632;2024-03-23T06:13:31;0.20;;;0.20;;
15412;SDS011;7805;49.554;7.632;2024-03-23T06:15:57;0.30;;;0.30;;
15412;SDS011;7805;49.554;7.632;2024-03-23T06:18:23;0.83;;;0.40;;
15412;SDS011;7805;49.554;7.632;2024-03-23T06:20:49;0.40;;;0.40;;
15412;SDS011;7805;49.554;7.632;2024-03-23T06:23:15;0.60;;;0.60;;
15412;SDS011;7805;49.554;7.632;2024-03-23T06:25:42;1.93;;;0.30;;
15412;SDS011;7805;49.554;7.632;2024-03-23T06:28:08;0.87;;;0.50;;
15412;SDS011;7805;49.554;7.632;2024-03-23T06:30:33;0.77;;;0.70;;
15412;SDS011;7805;49.554;7.632;2024-03-23T06:32:59;0.50;;;0.50;;
15412;SDS011;7805;49.554;7.632;2024-03-23T06:35:24;1.50;;;0.63;;
15412;SDS011;7805;49.554;7.632;2024-03-23T06:37:50;0.83;;;0.70;;
15412;SDS011;7805;49.554;7.632;2024-03-23T06:40:15;1.53;;;1.43;;
15412;SDS011;7805;49.554;7.632;2024-03-23T06:42:41;4.83;;;1.00;;
15412;SDS011;7805;49.554;7.632;2024-03-23T06:45:06;6.03;;;1.30;;
15412;SDS011;7805;49.554;7.632;2024-03-23T06:47:32;4.20;;;1.30;;
15412;SDS011;7805;49.554;7.632;2024-03-23T06:50:02;4.80;;;1.10;;
15412;SDS011;7805;49.554;7.632;2024-03-23T06:52:28;2.97;;;1.60;;
15412;SDS011;7805;49.554;7.632;2024-03-23T06:54:54;2.50;;;1.17;;
15412;SDS011;7805;49.554;7.632;2024-03-23T06:57:20;4.10;;;1.50;;
15412;SDS011;7805;49.554;7.632;2024-03-23T06:59:46;4.37;;;1.60;;
15412;SDS011;7805;49.554;7.632;2024-03-23T07:02:12;5.80;;;1.57;;
15412;SDS011;7805;49.554;7.632;2024-03-23T07:04:37;1.80;;;1.10;;
15412;SDS011;7805;49.554;7.632;2024-03-23T07:07:04;5.67;;;1.50;;
15412;SDS011;7805;49.554;7.632;2024-03-23T07:09:30;3.63;;;1.87;;
15412;SDS011;7805;49.554;7.632;2024-03-23T07:11:56;3.90;;;1.83;;
15412;SDS011;7805;49.554;7.632;2024-03-23T07:14:22;5.43;;;1.80;;
15412;SDS011;7805;49.554;7.632;2024-03-23T07:16:48;2.30;;;1.90;;
15412;SDS011;7805;49.554;7.632;2024-03-23T07:19:15;7.67;;;2.10;;
15412;SDS011;7805;49.554;7.632;2024-03-23T07:21:44;6.40;;;2.33;;
15412;SDS011;7805;49.554;7.632;2024-03-23T07:24:10;10.47;;;2.57;;
15412;SDS011;7805;49.554;7.632;2024-03-23T07:26:36;4.97;;;2.23;;
15412;SDS011;7805;49.554;7.632;2024-03-23T07:29:03;5.83;;;2.47;;
15412;SDS011;7805;49.554;7.632;2024-03-23T07:31:29;4.97;;;2.57;;
15412;SDS011;7805;49.554;7.632;2024-03-23T07:33:55;5.50;;;2.10;;
15412;SDS011;7805;49.554;7.632;2024-03-23T07:36:20;10.67;;;3.83;;
15412;SDS011;7805;49.554;7.632;2024-03-23T07:38:46;7.60;;;3.60;;
15412;SDS011;7805;49.554;7.632;2024-03-23T07:41:13;6.67;;;2.40;;
15412;SDS011;7805;49.554;7.632;2024-03-23T07:43:46;11.60;;;6.23;;
15412;SDS011;7805;49.554;7.632;2024-03-23T07:46:13;5.73;;;2.23;;
15412;SDS011;7805;49.554;7.632;2024-03-23T07:48:39;6.57;;;2.27;;
15412;SDS011;7805;49.554;7.632;2024-03-23T07:51:15;5.77;;;3.00;;
15412;SDS011;7805;49.554;7.632;2024-03-23T07:53:43;8.17;;;3.30;;
15412;SDS011;7805;49.554;7.632;2024-03-23T07:56:10;7.77;;;3.07;;
15412;SDS011;7805;49.554;7.632;2024-03-23T07:58:36;7.63;;;3.50;;
15412;SDS011;7805;49.554;7.632;2024-03-23T08:01:08;7.83;;;3.33;;
15412;SDS011;7805;49.554;7.632;2024-03-23T08:03:34;8.23;;;3.37;;
15412;SDS011;7805;49.554;7.632;2024-03-23T08:06:21;8.90;;;3.97;;
15412;SDS011;7805;49.554;7.632;2024-03-23T08:08:51;9.23;;;3.43;;
15412;SDS011;7805;49.554;7.632;2024-03-23T08:11:25;8.67;;;3.83;;
15412;SDS011;7805;49.554;7.632;2024-03-23T08:13:54;13.00;;;3.50;;
15412;SDS011;7805;49.554;7.632;2024-03-23T08:16:20;8.93;;;4.03;;
15412;SDS011;7805;49.554;7.632;2024-03-23T08:18:46;12.20;;;3.60;;
15412;SDS011;7805;49.554;7.632;2024-03-23T08:21:11;8.50;;;3.50;;
15412;SDS011;7805;49.554;7.632;2024-03-23T08:23:37;9.33;;;4.10;;
15412;SDS011;7805;49.554;7.632;2024-03-23T08:26:04;9.83;;;3.47;;
15412;SDS011;7805;49.554;7.632;2024-03-23T08:28:41;9.53;;;3.60;;
15412;SDS011;7805;49.554;7.632;2024-03-23T08:31:07;9.57;;;3.90;;
15412;SDS011;7805;49.554;7.632;2024-03-23T08:33:34;9.50;;;3.70;;
15412;SDS011;7805;49.554;7.632;2024-03-23T08:36:01;7.57;;;3.63;;
15412;SDS011;7805;49.554;7.632;2024-03-23T08:38:28;10.63;;;3.90;;
15412;SDS011;7805;49.554;7.632;2024-03-23T08:40:57;7.20;;;3.50;;
15412;SDS011;7805;49.554;7.632;2024-03-23T08:43:23;9.77;;;4.00;;
15412;SDS011;7805;49.554;7.632;2024-03-23T08:45:48;6.53;;;3.43;;
15412;SDS011;7805;49.554;7.632;2024-03-23T08:48:14;10.93;;;5.60;;
15412;SDS011;7805;49.554;7.632;2024-03-23T08:50:43;8.23;;;3.90;;
15412;SDS011;7805;49.554;7.632;2024-03-23T08:53:09;8.00;;;3.80;;
15412;SDS011;7805;49.554;7.632;2024-03-23T08:55:34;10.90;;;3.97;;
15412;SDS011;7805;49.554;7.632;2024-03-23T08:58:00;9.03;;;4.30;;
15412;SDS011;7805;49.554;7.632;2024-03-23T09:00:26;9.43;;;4.53;;
15412;SDS011;7805;49.554;7.632;2024-03-23T09:02:51;9.20;;;4.50;;
15412;SDS011;7805;49.554;7.632;2024-03-23T09:05:18;6.40;;;3.30;;
15412;SDS011;7805;49.554;7.632;2024-03-23T09:07:44;11.10;;;5.27;;
15412;SDS011;7805;49.554;7.632;2024-03-23T09:10:09;8.13;;;3.60;;
15412;SDS011;7805;49.554;7.632;2024-03-23T09:12:35;14.47;;;5.50;;
15412;SDS011;7805;49.554;7.632;2024-03-23T09:15:00;11.10;;;3.90;;
15412;SDS011;7805;49.554;7.632;2024-03-23T09:17:26;6.07;;;2.80;;
15412;SDS011;7805;49.554;7.632;2024-03-23T09:19:51;8.80;;;3.70;;
15412;SDS011;7805;49.554;7.632;2024-03-23T09:22:17;9.60;;;4.37;;
15412;SDS011;7805;49.554;7.632;2024-03-23T09:24:42;9.27;;;3.43;;
15412;SDS011;7805;49.554;7.632;2024-03-23T09:27:08;14.10;;;4.03;;
15412;SDS011;7805;49.554;7.632;2024-03-23T09:29:33;13.53;;;5.73;;
15412;SDS011;7805;49.554;7.632;2024-03-23T09:31:59;6.63;;;4.27;;
15412;SDS011;7805;49.554;7.632;2024-03-23T09:34:25;7.80;;;4.13;;
15412;SDS011;7805;49.554;7.632;2024-03-23T09:36:51;7.17;;;3.40;;
15412;SDS011;7805;49.554;7.632;2024-03-23T09:39:17;8.53;;;3.63;;
15412;SDS011;7805;49.554;7.632;2024-03-23T09:41:43;12.47;;;4.20;;
15412;SDS011;7805;49.554;7.632;2024-03-23T09:44:08;6.97;;;3.53;;
15412;SDS011;7805;49.554;7.632;2024-03-23T09:46:34;8.20;;;3.17;;
15412;SDS011;7805;49.554;7.632;2024-03-23T09:49:01;7.60;;;3.47;;
15412;SDS011;7805;49.554;7.632;2024-03-23T09:51:29;8.83;;;3.20;;
15412;SDS011;7805;49.554;7.632;2024-03-23T09:53:55;9.97;;;3.77;;
15412;SDS011;7805;49.554;7.632;2024-03-23T09:56:21;8.37;;;3.50;;
15412;SDS011;7805;49.554;7.632;2024-03-23T09:58:48;9.27;;;3.23;;
15412;SDS011;7805;49.554;7.632;2024-03-23T10:01:14;5.80;;;2.20;;
15412;SDS011;7805;49.554;7.632;2024-03-23T10:03:43;8.30;;;2.47;;
15412;SDS011;7805;49.554;7.632;2024-03-23T10:06:09;10.57;;;3.53;;
15412;SDS011;7805;49.554;7.632;2024-03-23T10:08:35;9.13;;;3.20;;
15412;SDS011;7805;49.554;7.632;2024-03-23T10:11:34;6.00;;;2.70;;
15412;SDS011;7805;49.554;7.632;2024-03-23T10:13:54;14.30;;;3.03;;
15412;SDS011;7805;49.554;7.632;2024-03-23T10:16:22;5.13;;;2.27;;
15412;SDS011;7805;49.554;7.632;2024-03-23T10:18:48;5.27;;;2.23;;
15412;SDS011;7805;49.554;7.632;2024-03-23T10:21:15;5.30;;;2.40;;
15412;SDS011;7805;49.554;7.632;2024-03-23T10:23:42;6.93;;;2.43;;
15412;SDS011;7805;49.554;7.632;2024-03-23T10:28:57;8.27;;;2.60;;
15412;SDS011;7805;49.554;7.632;2024-03-23T10:31:32;10.27;;;2.73;;
15412;SDS011;7805;49.554;7.632;2024-03-23T10:34:00;4.23;;;2.50;;
15412;SDS011;7805;49.554;7.632;2024-03-23T10:36:26;7.80;;;2.63;;
15412;SDS011;7805;49.554;7.632;2024-03-23T10:38:52;5.17;;;2.17;;
15412;SDS011;7805;49.554;7.632;2024-03-23T10:41:19;5.93;;;2.50;;
15412;SDS011;7805;49.554;7.632;2024-03-23T10:43:45;6.57;;;2.40;;
15412;SDS011;7805;49.554;7.632;2024-03-23T10:46:12;8.80;;;2.53;;
15412;SDS011;7805;49.554;7.632;2024-03-23T10:48:37;6.50;;;2.70;;
15412;SDS011;7805;49.554;7.632;2024-03-23T10:51:03;8.60;;;2.50;;
15412;SDS011;7805;49.554;7.632;2024-03-23T10:53:32;8.83;;;2.80;;
15412;SDS011;7805;49.554;7.632;2024-03-23T10:55:59;7.63;;;2.93;;
15412;SDS011;7805;49.554;7.632;2024-03-23T10:58:31;6.30;;;3.00;;
15412;SDS011;7805;49.554;7.632;2024-03-23T11:01:12;5.33;;;2.70;;
15412;SDS011;7805;49.554;7.632;2024-03-23T11:03:38;4.37;;;2.73;;
15412;SDS011;7805;49.554;7.632;2024-03-23T11:06:05;4.23;;;2.50;;
15412;SDS011;7805;49.554;7.632;2024-03-23T11:13:45;6.60;;;2.57;;
15412;SDS011;7805;49.554;7.632;2024-03-23T11:16:21;6.00;;;2.30;;
15412;SDS011;7805;49.554;7.632;2024-03-23T11:18:48;4.17;;;2.20;;
15412;SDS011;7805;49.554;7.632;2024-03-23T11:24:19;8.60;;;2.57;;
15412;SDS011;7805;49.554;7.632;2024-03-23T11:26:46;6.20;;;2.80;;
15412;SDS011;7805;49.554;7.632;2024-03-23T11:29:12;5.43;;;2.17;;
15412;SDS011;7805;49.554;7.632;2024-03-23T11:31:44;3.57;;;1.63;;
15412;SDS011;7805;49.554;7.632;2024-03-23T11:34:11;2.43;;;1.23;;
15412;SDS011;7805;49.554;7.632;2024-03-23T11:36:36;3.33;;;1.50;;
15412;SDS011;7805;49.554;7.632;2024-03-23T11:39:17;1.50;;;1.07;;
15412;SDS011;7805;49.554;7.632;2024-03-23T11:41:51;2.90;;;1.00;;
15412;SDS011;7805;49.554;7.632;2024-03-23T11:44:21;1.70;;;1.13;;
15412;SDS011;7805;49.554;7.632;2024-03-23T11:46:48;4.70;;;1.50;;
15412;SDS011;7805;49.554;7.632;2024-03-23T11:49:27;3.93;;;1.60;;
15412;SDS011;7805;49.554;7.632;2024-03-23T11:51:55;2.57;;;1.30;;
15412;SDS011;7805;49.554;7.632;2024-03-23T11:54:24;2.10;;;1.33;;
15412;SDS011;7805;49.554;7.632;2024-03-23T11:56:57;3.27;;;1.70;;
15412;SDS011;7805;49.554;7.632;2024-03-23T11:59:41;2.40;;;1.33;;
15412;SDS011;7805;49.554;7.632;2024-03-23T12:02:07;4.60;;;2.00;;
15412;SDS011;7805;49.554;7.632;2024-03-23T12:04:35;4.27;;;2.80;;
15412;SDS011;7805;49.554;7.632;2024-03-23T12:09:47;4.90;;;2.43;;
15412;SDS011;7805;49.554;7.632;2024-03-23T12:12:29;2.73;;;2.03;;
15412;SDS011;7805;49.554;7.632;2024-03-23T12:15:04;2.47;;;1.50;;
15412;SDS011;7805;49.554;7.632;2024-03-23T12:17:31;4.43;;;4.07;;
15412;SDS011;7805;49.554;7.632;2024-03-23T12:19:58;5.07;;;4.57;;
15412;SDS011;7805;49.554;7.632;2024-03-23T12:22:23;3.33;;;2.30;;
15412;SDS011;7805;49.554;7.632;2024-03-23T12:24:50;2.33;;;1.33;;
15412;SDS011;7805;49.554;7.632;2024-03-23T12:27:15;2.40;;;1.10;;
15412;SDS011;7805;49.554;7.632;2024-03-23T12:29:42;1.00;;;0.83;;
15412;SDS011;7805;49.554;7.632;2024-03-23T12:32:11;3.27;;;1.30;;
15412;SDS011;7805;49.554;7.632;2024-03-23T12:34:38;1.03;;;0.90;;
15412;SDS011;7805;49.554;7.632;2024-03-23T12:37:04;2.10;;;1.30;;
15412;SDS011;7805;49.554;7.632;2024-03-23T12:39:31;2.97;;;1.27;;
15412;SDS011;7805;49.554;7.632;2024-03-23T12:41:57;1.47;;;1.20;;
15412;SDS011;7805;49.554;7.632;2024-03-23T12:44:22;4.90;;;1.57;;
15412;SDS011;7805;49.554;7.632;2024-03-23T12:46:48;5.50;;;1.40;;
15412;SDS011;7805;49.554;7.632;2024-03-23T12:49:13;3.13;;;1.07;;
15412;SDS011;7805;49.554;7.632;2024-03-23T12:51:39;2.00;;;1.23;;
15412;SDS011;7805;49.554;7.632;2024-03-23T12:54:21;1.97;;;0.93;;
15412;SDS011;7805;49.554;7.632;2024-03-23T12:56:47;2.03;;;0.90;;
15412;SDS011;7805;49.554;7.632;2024-03-23T12:59:13;2.30;;;0.77;;
15412;SDS011;7805;49.554;7.632;2024-03-23T13:01:39;1.90;;;1.00;;
15412;SDS011;7805;49.554;7.632;2024-03-23T13:04:05;2.93;;;1.27;;
15412;SDS011;7805;49.554;7.632;2024-03-23T13:06:30;0.57;;;0.53;;
15412;SDS011;7805;49.554;7.632;2024-03-23T13:09:00;3.17;;;0.60;;
15412;SDS011;7805;49.554;7.632;2024-03-23T13:11:26;2.07;;;0.87;;
15412;SDS011;7805;49.554;7.632;2024-03-23T13:13:53;2.23;;;0.60;;
15412;SDS011;7805;49.554;7.632;2024-03-23T13:16:18;2.70;;;1.47;;
15412;SDS011;7805;49.554;7.632;2024-03-23T13:18:44;1.70;;;1.33;;
15412;SDS011;7805;49.554;7.632;2024-03-23T13:21:10;2.07;;;0.60;;
15412;SDS011;7805;49.554;7.632;2024-03-23T13:23:35;1.43;;;0.73;;
15412;SDS011;7805;49.554;7.632;2024-03-23T13:26:03;1.63;;;1.20;;
15412;SDS011;7805;49.554;7.632;2024-03-23T13:28:28;1.23;;;0.90;;
15412;SDS011;7805;49.554;7.632;2024-03-23T13:30:54;3.40;;;1.17;;
15412;SDS011;7805;49.554;7.632;2024-03-23T13:33:21;0.93;;;0.77;;
15412;SDS011;7805;49.554;7.632;2024-03-23T13:38:19;1.40;;;1.07;;
15412;SDS011;7805;49.554;7.632;2024-03-23T13:40:51;1.83;;;1.33;;
15412;SDS011;7805;49.554;7.632;2024-03-23T13:43:24;1.90;;;0.80;;
15412;SDS011;7805;49.554;7.632;2024-03-23T13:45:53;1.63;;;1.10;;
15412;SDS011;7805;49.554;7.632;2024-03-23T13:48:20;3.60;;;1.40;;
15412;SDS011;7805;49.554;7.632;2024-03-23T13:50:51;2.43;;;1.10;;
15412;SDS011;7805;49.554;7.632;2024-03-23T13:53:22;1.57;;;1.10;;
15412;SDS011;7805;49.554;7.632;2024-03-23T13:55:48;1.90;;;1.20;;
15412;SDS011;7805;49.554;7.632;2024-03-23T13:58:14;1.63;;;1.13;;
15412;SDS011;7805;49.554;7.632;2024-03-23T14:00:40;4.23;;;0.90;;
15412;SDS011;7805;49.554;7.632;2024-03-23T14:03:09;1.83;;;1.10;;
15412;SDS011;7805;49.554;7.632;2024-03-23T14:05:36;1.23;;;1.07;;
15412;SDS011;7805;49.554;7.632;2024-03-23T14:08:08;2.47;;;1.20;;
15412;SDS011;7805;49.554;7.632;2024-03-23T14:10:35;3.33;;;1.20;;
15412;SDS011;7805;49.554;7.632;2024-03-23T14:13:02;3.03;;;1.00;;
15412;SDS011;7805;49.554;7.632;2024-03-23T14:15:30;2.23;;;0.70;;
15412;SDS011;7805;49.554;7.632;2024-03-23T14:17:56;3.80;;;1.40;;
15412;SDS011;7805;49.554;7.632;2024-03-23T14:20:22;2.73;;;1.07;;
15412;SDS011;7805;49.554;7.632;2024-03-23T14:22:48;2.30;;;1.07;;
15412;SDS011;7805;49.554;7.632;2024-03-23T14:25:14;2.07;;;1.70;;
15412;SDS011;7805;49.554;7.632;2024-03-23T14:27:40;1.77;;;1.00;;
15412;SDS011;7805;49.554;7.632;2024-03-23T14:30:06;2.20;;;1.17;;
15412;SDS011;7805;49.554;7.632;2024-03-23T14:32:32;4.03;;;1.67;;
15412;SDS011;7805;49.554;7.632;2024-03-23T14:35:01;2.27;;;0.90;;
15412;SDS011;7805;49.554;7.632;2024-03-23T14:37:27;2.10;;;0.70;;
15412;SDS011;7805;49.554;7.632;2024-03-23T14:39:53;1.80;;;0.80;;
15412;SDS011;7805;49.554;7.632;2024-03-23T14:42:21;2.50;;;1.10;;
15412;SDS011;7805;49.554;7.632;2024-03-23T14:44:46;5.07;;;2.10;;
15412;SDS011;7805;49.554;7.632;2024-03-23T14:47:12;2.93;;;0.90;;
15412;SDS011;7805;49.554;7.632;2024-03-23T14:49:37;5.30;;;1.10;;
15412;SDS011;7805;49.554;7.632;2024-03-23T14:52:03;1.20;;;0.60;;
15412;SDS011;7805;49.554;7.632;2024-03-23T14:54:29;1.10;;;0.97;;
15412;SDS011;7805;49.554;7.632;2024-03-23T14:56:54;1.53;;;1.10;;
15412;SDS011;7805;49.554;7.632;2024-03-23T14:59:23;2.97;;;0.90;;
15412;SDS011;7805;49.554;7.632;2024-03-23T15:01:49;3.77;;;0.70;;
15412;SDS011;7805;49.554;7.632;2024-03-23T15:04:14;1.97;;;0.80;;
15412;SDS011;7805;49.554;7.632;2024-03-23T15:06:46;3.50;;;0.87;;
15412;SDS011;7805;49.554;7.632;2024-03-23T15:09:14;1.60;;;1.27;;
15412;SDS011;7805;49.554;7.632;2024-03-23T15:11:40;1.27;;;0.70;;
15412;SDS011;7805;49.554;7.632;2024-03-23T15:14:06;3.40;;;1.40;;
15412;SDS011;7805;49.554;7.632;2024-03-23T15:16:32;5.37;;;3.27;;
15412;SDS011;7805;49.554;7.632;2024-03-23T15:18:58;1.57;;;0.73;;
15412;SDS011;7805;49.554;7.632;2024-03-23T15:21:23;1.43;;;0.63;;
15412;SDS011;7805;49.554;7.632;2024-03-23T15:23:49;1.70;;;0.77;;
15412;SDS011;7805;49.554;7.632;2024-03-23T15:26:15;3.83;;;1.10;;
15412;SDS011;7805;49.554;7.632;2024-03-23T15:28:41;2.80;;;1.07;;
15412;SDS011;7805;49.554;7.632;2024-03-23T15:31:19;1.60;;;1.03;;
15412;SDS011;7805;49.554;7.632;2024-03-23T15:33:45;2.37;;;1.10;;
15412;SDS011;7805;49.554;7.632;2024-03-23T15:36:10;1.53;;;1.10;;
15412;SDS011;7805;49.554;7.632;2024-03-23T15:38:36;2.30;;;1.27;;
15412;SDS011;7805;49.554;7.632;2024-03-23T15:41:03;4.07;;;1.20;;
15412;SDS011;7805;49.554;7.632;2024-03-23T15:43:29;2.40;;;1.57;;
15412;SDS011;7805;49.554;7.632;2024-03-23T15:48:22;4.50;;;1.70;;
15412;SDS011;7805;49.554;7.632;2024-03-23T15:50:55;1.77;;;1.00;;
15412;SDS011;7805;49.554;7.632;2024-03-23T15:53:24;1.40;;;1.00;;
15412;SDS011;7805;49.554;7.632;2024-03-23T15:58:22;3.23;;;2.13;;
15412;SDS011;7805;49.554;7.632;2024-03-23T16:03:24;1.23;;;0.57;;
15412;SDS011;7805;49.554;7.632;2024-03-23T16:05:56;2.47;;;2.27;;
15412;SDS011;7805;49.554;7.632;2024-03-23T16:08:23;1.67;;;0.70;;
15412;SDS011;7805;49.554;7.632;2024-03-23T16:10:49;2.17;;;0.90;;
15412;SDS011;7805;49.554;7.632;2024-03-23T16:13:15;1.13;;;0.70;;